West Fairview, Kentucky
Current Conditions -  °F | °C
As of 7:35 PM on Tuesday 25 Nov 2014 (Local Time) from KDWU Reporting Station
Clear Clear  
Wind Chill: 43°   Ceiling: Unl
Heat Index: 43°   Visibility: 10mi
Dew Point: 28°   Wind: 0mph
Humidity: 57%   Direction: NA
Pressure: 30.11"   Gusts: NA
Location:  38.4744°N, 82.6532°W
Report Text: KDWU 260035Z AUTO 00000KT 10SM CLR 06/M02 A3011 RMK AO1
Loading
Personal Weather Stations






























Interactive Weather Map New forecast layout! Learn more

10-Day Weather Forecast

Advertisements
Track Severe Weather on mobile